< < Back
Terminal Aerodrome Forecast


Current Version              Previous Versions:   1  2  3  4  5  6  7  8  9  

Terminal Aerodrome Forecast

407
FTUS42 KILM 191100
TAFILM
TAF
KILM 191123Z 1912/2012 03012KT 4SM RA BR SCT025 BKN040 OVC080
     FM191330 02010KT 6SM -RA BR BKN007 OVC020
     FM191600 02012G22KT P6SM -RA BKN009 OVC020
     FM200400 03015G25KT 4SM -RA BR OVC007
     FM201000 02015G25KT P6SM BKN010=

Latest METAR

807
SAUS70 KWBC 200000 RRL
MTRILM
METAR KILM 192353Z AUTO 02014KT 5SM -RA BR OVC009 12/10 A3007 RMK AO2
SLP182 P0008 60014 T01170100 10150 20117 51014


USA.gov is the U.S. government's official web portal to all federal, state and local government web resources and services.